KPBH

Price County Airport

Phillips, Wisconsin, USA
METAR KPBH 182135Z AUTO 00000KT 10SM SCT028 22/16 A3005 RMK AO2 T02210162
Observed Flight Rules
Aug-18 @ 21:35 UTC (19 minutes ago) Visual Flight Rules
Visibility Clouds
10 miles
  • Scattered at 2,800' AGL
Temperatures Readings
Current 22°C / 72°F
Dewpoint 16°C / 61°F
Humidity 69%
Altimeter 30.05" Hg
Pressure 1018 hPa
Elevation 449
METAR KPBH 182135Z AUTO 00000KT 10SM SCT028 22/16 A3005 RMK AO2 T02210162
Observed Flight Rules
Aug-18 @ 21:35 UTC
(19 minutes ago)
VFR
Clouds
  • Scattered at 2,800' AGL
Temperature Dewpoint
22°C / 72°F 16°C / 61°F
Humidity Altimeter Pressure
69% 30.05" Hg 1018 hPa